sensor_id;sensor_type;location;lat;lon;timestamp;P1;durP1;ratioP1;P2;durP2;ratioP2
4889;SDS011;2459;42.268;23.112;2023-04-03T00:02:01;6.13;;;4.17;;
4889;SDS011;2459;42.268;23.112;2023-04-03T00:04:27;4.63;;;3.20;;
4889;SDS011;2459;42.268;23.112;2023-04-03T00:06:56;8.43;;;3.93;;
4889;SDS011;2459;42.268;23.112;2023-04-03T00:09:23;10.77;;;5.23;;
4889;SDS011;2459;42.268;23.112;2023-04-03T00:11:49;7.23;;;4.23;;
4889;SDS011;2459;42.268;23.112;2023-04-03T00:14:18;8.57;;;5.03;;
4889;SDS011;2459;42.268;23.112;2023-04-03T00:16:48;8.07;;;4.80;;
4889;SDS011;2459;42.268;23.112;2023-04-03T00:19:14;22.53;;;6.80;;
4889;SDS011;2459;42.268;23.112;2023-04-03T00:21:41;14.13;;;5.70;;
4889;SDS011;2459;42.268;23.112;2023-04-03T00:24:09;6.80;;;5.00;;
4889;SDS011;2459;42.268;23.112;2023-04-03T00:26:35;10.03;;;5.20;;
4889;SDS011;2459;42.268;23.112;2023-04-03T00:29:02;9.70;;;5.10;;
4889;SDS011;2459;42.268;23.112;2023-04-03T00:31:28;10.80;;;5.50;;
4889;SDS011;2459;42.268;23.112;2023-04-03T00:33:56;9.97;;;5.33;;
4889;SDS011;2459;42.268;23.112;2023-04-03T00:36:23;14.70;;;5.20;;
4889;SDS011;2459;42.268;23.112;2023-04-03T00:38:49;10.80;;;6.00;;
4889;SDS011;2459;42.268;23.112;2023-04-03T00:41:17;17.57;;;7.00;;
4889;SDS011;2459;42.268;23.112;2023-04-03T00:43:44;9.53;;;5.77;;
4889;SDS011;2459;42.268;23.112;2023-04-03T00:46:11;13.87;;;6.80;;
4889;SDS011;2459;42.268;23.112;2023-04-03T00:48:38;13.97;;;6.43;;
4889;SDS011;2459;42.268;23.112;2023-04-03T00:51:08;14.27;;;6.20;;
4889;SDS011;2459;42.268;23.112;2023-04-03T00:53:37;13.53;;;7.10;;
4889;SDS011;2459;42.268;23.112;2023-04-03T00:56:05;15.73;;;6.57;;
4889;SDS011;2459;42.268;23.112;2023-04-03T00:58:34;17.43;;;6.97;;
4889;SDS011;2459;42.268;23.112;2023-04-03T01:01:03;13.40;;;5.20;;
4889;SDS011;2459;42.268;23.112;2023-04-03T01:03:33;16.33;;;6.07;;
4889;SDS011;2459;42.268;23.112;2023-04-03T01:06:01;13.23;;;5.87;;
4889;SDS011;2459;42.268;23.112;2023-04-03T01:08:27;12.03;;;6.23;;
4889;SDS011;2459;42.268;23.112;2023-04-03T01:10:54;13.43;;;6.60;;
4889;SDS011;2459;42.268;23.112;2023-04-03T01:13:22;19.63;;;6.97;;
4889;SDS011;2459;42.268;23.112;2023-04-03T01:15:51;14.20;;;5.83;;
4889;SDS011;2459;42.268;23.112;2023-04-03T01:18:19;10.17;;;5.30;;
4889;SDS011;2459;42.268;23.112;2023-04-03T01:23:44;9.73;;;4.97;;
4889;SDS011;2459;42.268;23.112;2023-04-03T01:26:12;14.27;;;6.20;;
4889;SDS011;2459;42.268;23.112;2023-04-03T01:28:39;17.00;;;6.90;;
4889;SDS011;2459;42.268;23.112;2023-04-03T01:31:10;15.53;;;5.50;;
4889;SDS011;2459;42.268;23.112;2023-04-03T01:33:42;12.37;;;5.60;;
4889;SDS011;2459;42.268;23.112;2023-04-03T01:36:09;14.07;;;5.27;;
4889;SDS011;2459;42.268;23.112;2023-04-03T01:38:37;11.37;;;4.57;;
4889;SDS011;2459;42.268;23.112;2023-04-03T01:41:04;10.63;;;5.43;;
4889;SDS011;2459;42.268;23.112;2023-04-03T01:43:30;10.93;;;5.40;;
4889;SDS011;2459;42.268;23.112;2023-04-03T01:45:57;10.90;;;5.30;;
4889;SDS011;2459;42.268;23.112;2023-04-03T01:48:24;15.83;;;6.23;;
4889;SDS011;2459;42.268;23.112;2023-04-03T01:50:51;10.10;;;5.27;;
4889;SDS011;2459;42.268;23.112;2023-04-03T01:53:18;8.97;;;5.70;;
4889;SDS011;2459;42.268;23.112;2023-04-03T01:55:45;12.23;;;5.17;;
4889;SDS011;2459;42.268;23.112;2023-04-03T01:58:11;8.90;;;4.77;;
4889;SDS011;2459;42.268;23.112;2023-04-03T02:00:38;13.33;;;5.67;;
4889;SDS011;2459;42.268;23.112;2023-04-03T02:03:04;17.93;;;6.73;;
4889;SDS011;2459;42.268;23.112;2023-04-03T02:05:32;13.27;;;6.60;;
4889;SDS011;2459;42.268;23.112;2023-04-03T02:07:59;7.40;;;4.87;;
4889;SDS011;2459;42.268;23.112;2023-04-03T02:10:26;11.03;;;4.87;;
4889;SDS011;2459;42.268;23.112;2023-04-03T02:12:53;9.70;;;4.93;;
4889;SDS011;2459;42.268;23.112;2023-04-03T02:15:19;9.00;;;5.13;;
4889;SDS011;2459;42.268;23.112;2023-04-03T02:17:46;17.50;;;5.33;;
4889;SDS011;2459;42.268;23.112;2023-04-03T02:20:12;11.33;;;5.00;;
4889;SDS011;2459;42.268;23.112;2023-04-03T02:22:39;12.03;;;5.90;;
4889;SDS011;2459;42.268;23.112;2023-04-03T02:25:08;7.87;;;3.60;;
4889;SDS011;2459;42.268;23.112;2023-04-03T02:27:35;6.03;;;3.70;;
4889;SDS011;2459;42.268;23.112;2023-04-03T02:30:02;6.23;;;3.57;;
4889;SDS011;2459;42.268;23.112;2023-04-03T02:32:28;6.50;;;3.20;;
4889;SDS011;2459;42.268;23.112;2023-04-03T02:34:55;5.77;;;3.30;;
4889;SDS011;2459;42.268;23.112;2023-04-03T02:37:22;9.70;;;3.70;;
4889;SDS011;2459;42.268;23.112;2023-04-03T02:39:48;11.77;;;3.70;;
4889;SDS011;2459;42.268;23.112;2023-04-03T02:42:16;3.60;;;2.80;;
4889;SDS011;2459;42.268;23.112;2023-04-03T02:44:45;9.03;;;3.40;;
4889;SDS011;2459;42.268;23.112;2023-04-03T02:47:11;6.50;;;3.07;;
4889;SDS011;2459;42.268;23.112;2023-04-03T02:49:38;4.00;;;2.43;;
4889;SDS011;2459;42.268;23.112;2023-04-03T02:52:05;6.67;;;2.73;;
4889;SDS011;2459;42.268;23.112;2023-04-03T02:54:31;6.80;;;2.90;;
4889;SDS011;2459;42.268;23.112;2023-04-03T02:56:58;12.33;;;3.37;;
4889;SDS011;2459;42.268;23.112;2023-04-03T02:59:27;4.90;;;2.73;;
4889;SDS011;2459;42.268;23.112;2023-04-03T03:01:53;3.20;;;2.57;;
4889;SDS011;2459;42.268;23.112;2023-04-03T03:04:20;6.23;;;2.30;;
4889;SDS011;2459;42.268;23.112;2023-04-03T03:06:48;3.00;;;2.63;;
4889;SDS011;2459;42.268;23.112;2023-04-03T03:09:16;7.53;;;2.87;;
4889;SDS011;2459;42.268;23.112;2023-04-03T03:11:42;13.73;;;4.87;;
4889;SDS011;2459;42.268;23.112;2023-04-03T03:14:09;8.57;;;4.87;;
4889;SDS011;2459;42.268;23.112;2023-04-03T03:16:40;11.37;;;5.70;;
4889;SDS011;2459;42.268;23.112;2023-04-03T03:19:06;16.97;;;7.57;;
4889;SDS011;2459;42.268;23.112;2023-04-03T03:21:33;18.47;;;8.03;;
4889;SDS011;2459;42.268;23.112;2023-04-03T03:23:59;11.80;;;5.20;;
4889;SDS011;2459;42.268;23.112;2023-04-03T03:26:26;12.70;;;4.63;;
4889;SDS011;2459;42.268;23.112;2023-04-03T03:28:53;11.20;;;3.90;;
4889;SDS011;2459;42.268;23.112;2023-04-03T03:31:19;11.60;;;5.10;;
4889;SDS011;2459;42.268;23.112;2023-04-03T03:33:47;9.60;;;3.97;;
4889;SDS011;2459;42.268;23.112;2023-04-03T03:36:14;7.27;;;4.13;;
4889;SDS011;2459;42.268;23.112;2023-04-03T03:38:41;8.97;;;4.07;;
4889;SDS011;2459;42.268;23.112;2023-04-03T03:41:07;6.63;;;4.13;;
4889;SDS011;2459;42.268;23.112;2023-04-03T03:43:34;14.40;;;5.00;;
4889;SDS011;2459;42.268;23.112;2023-04-03T03:46:01;5.77;;;4.57;;
4889;SDS011;2459;42.268;23.112;2023-04-03T03:48:27;8.93;;;5.13;;
4889;SDS011;2459;42.268;23.112;2023-04-03T03:50:55;8.93;;;5.27;;
4889;SDS011;2459;42.268;23.112;2023-04-03T03:53:22;22.17;;;5.70;;
4889;SDS011;2459;42.268;23.112;2023-04-03T03:55:49;13.63;;;6.80;;
4889;SDS011;2459;42.268;23.112;2023-04-03T03:58:15;17.17;;;6.40;;
4889;SDS011;2459;42.268;23.112;2023-04-03T04:00:42;21.43;;;6.93;;
4889;SDS011;2459;42.268;23.112;2023-04-03T04:03:11;16.10;;;7.23;;
4889;SDS011;2459;42.268;23.112;2023-04-03T04:05:38;21.73;;;7.23;;
4889;SDS011;2459;42.268;23.112;2023-04-03T04:08:06;36.63;;;8.37;;
4889;SDS011;2459;42.268;23.112;2023-04-03T04:10:33;70.07;;;20.77;;
4889;SDS011;2459;42.268;23.112;2023-04-03T04:13:00;32.53;;;12.97;;
4889;SDS011;2459;42.268;23.112;2023-04-03T04:15:29;40.40;;;14.13;;
4889;SDS011;2459;42.268;23.112;2023-04-03T04:17:56;10.33;;;5.60;;
4889;SDS011;2459;42.268;23.112;2023-04-03T04:20:23;15.90;;;6.47;;
4889;SDS011;2459;42.268;23.112;2023-04-03T04:22:49;21.87;;;5.67;;
4889;SDS011;2459;42.268;23.112;2023-04-03T04:25:17;12.07;;;5.40;;
4889;SDS011;2459;42.268;23.112;2023-04-03T04:27:44;36.60;;;10.97;;
4889;SDS011;2459;42.268;23.112;2023-04-03T04:30:11;7.70;;;5.13;;
4889;SDS011;2459;42.268;23.112;2023-04-03T04:32:37;31.70;;;11.37;;
4889;SDS011;2459;42.268;23.112;2023-04-03T04:35:04;17.43;;;6.83;;
4889;SDS011;2459;42.268;23.112;2023-04-03T04:37:31;16.20;;;6.60;;
4889;SDS011;2459;42.268;23.112;2023-04-03T04:39:58;4.50;;;3.10;;
4889;SDS011;2459;42.268;23.112;2023-04-03T04:42:26;7.37;;;3.20;;
4889;SDS011;2459;42.268;23.112;2023-04-03T04:44:52;14.10;;;5.70;;
4889;SDS011;2459;42.268;23.112;2023-04-03T04:47:19;13.03;;;5.27;;
4889;SDS011;2459;42.268;23.112;2023-04-03T04:49:45;5.60;;;3.50;;
4889;SDS011;2459;42.268;23.112;2023-04-03T04:52:13;8.00;;;5.37;;
4889;SDS011;2459;42.268;23.112;2023-04-03T04:54:39;6.23;;;3.20;;
4889;SDS011;2459;42.268;23.112;2023-04-03T04:57:08;3.67;;;2.70;;
4889;SDS011;2459;42.268;23.112;2023-04-03T04:59:37;6.30;;;3.10;;
4889;SDS011;2459;42.268;23.112;2023-04-03T05:02:03;2.20;;;2.10;;
4889;SDS011;2459;42.268;23.112;2023-04-03T05:04:30;5.37;;;2.30;;
4889;SDS011;2459;42.268;23.112;2023-04-03T05:06:58;11.90;;;5.50;;
4889;SDS011;2459;42.268;23.112;2023-04-03T05:09:24;6.50;;;2.50;;
4889;SDS011;2459;42.268;23.112;2023-04-03T05:11:51;17.20;;;3.70;;
4889;SDS011;2459;42.268;23.112;2023-04-03T05:14:18;3.50;;;2.13;;
4889;SDS011;2459;42.268;23.112;2023-04-03T05:16:46;4.43;;;2.47;;
4889;SDS011;2459;42.268;23.112;2023-04-03T05:19:12;3.90;;;2.70;;
4889;SDS011;2459;42.268;23.112;2023-04-03T05:21:39;4.40;;;1.93;;
4889;SDS011;2459;42.268;23.112;2023-04-03T05:24:06;2.73;;;2.10;;
4889;SDS011;2459;42.268;23.112;2023-04-03T05:26:34;3.07;;;1.90;;
4889;SDS011;2459;42.268;23.112;2023-04-03T05:29:01;4.83;;;2.47;;
4889;SDS011;2459;42.268;23.112;2023-04-03T05:31:30;4.57;;;1.80;;
4889;SDS011;2459;42.268;23.112;2023-04-03T05:33:58;2.30;;;1.80;;
4889;SDS011;2459;42.268;23.112;2023-04-03T05:36:25;9.73;;;2.30;;
4889;SDS011;2459;42.268;23.112;2023-04-03T05:38:51;3.53;;;1.93;;
4889;SDS011;2459;42.268;23.112;2023-04-03T05:41:18;3.33;;;2.20;;
4889;SDS011;2459;42.268;23.112;2023-04-03T05:43:46;5.17;;;2.30;;
4889;SDS011;2459;42.268;23.112;2023-04-03T05:46:13;6.33;;;2.50;;
4889;SDS011;2459;42.268;23.112;2023-04-03T05:48:40;3.40;;;2.50;;
4889;SDS011;2459;42.268;23.112;2023-04-03T05:51:14;3.90;;;2.70;;
4889;SDS011;2459;42.268;23.112;2023-04-03T05:53:41;8.83;;;3.27;;
4889;SDS011;2459;42.268;23.112;2023-04-03T05:56:09;6.10;;;3.23;;
4889;SDS011;2459;42.268;23.112;2023-04-03T05:58:36;8.13;;;2.63;;
4889;SDS011;2459;42.268;23.112;2023-04-03T06:01:02;11.70;;;4.00;;
4889;SDS011;2459;42.268;23.112;2023-04-03T06:03:30;17.83;;;5.60;;
4889;SDS011;2459;42.268;23.112;2023-04-03T06:05:57;7.70;;;4.80;;
4889;SDS011;2459;42.268;23.112;2023-04-03T06:08:25;8.73;;;5.10;;
4889;SDS011;2459;42.268;23.112;2023-04-03T06:10:55;11.20;;;5.90;;
4889;SDS011;2459;42.268;23.112;2023-04-03T06:13:21;21.27;;;11.33;;
4889;SDS011;2459;42.268;23.112;2023-04-03T06:15:48;14.33;;;7.83;;
4889;SDS011;2459;42.268;23.112;2023-04-03T06:18:16;11.60;;;6.93;;
4889;SDS011;2459;42.268;23.112;2023-04-03T06:20:43;16.43;;;6.40;;
4889;SDS011;2459;42.268;23.112;2023-04-03T06:23:09;14.60;;;6.97;;
4889;SDS011;2459;42.268;23.112;2023-04-03T06:25:41;18.70;;;9.37;;
4889;SDS011;2459;42.268;23.112;2023-04-03T06:28:08;7.57;;;4.17;;
4889;SDS011;2459;42.268;23.112;2023-04-03T06:30:35;11.00;;;5.77;;
4889;SDS011;2459;42.268;23.112;2023-04-03T06:33:02;18.10;;;6.03;;
4889;SDS011;2459;42.268;23.112;2023-04-03T06:35:28;35.57;;;13.80;;
4889;SDS011;2459;42.268;23.112;2023-04-03T06:37:55;10.40;;;5.97;;
4889;SDS011;2459;42.268;23.112;2023-04-03T06:40:22;31.43;;;11.13;;
4889;SDS011;2459;42.268;23.112;2023-04-03T06:42:51;24.90;;;10.33;;
4889;SDS011;2459;42.268;23.112;2023-04-03T06:45:18;9.27;;;5.40;;
4889;SDS011;2459;42.268;23.112;2023-04-03T06:47:45;17.70;;;9.43;;
4889;SDS011;2459;42.268;23.112;2023-04-03T06:50:11;15.27;;;5.37;;
4889;SDS011;2459;42.268;23.112;2023-04-03T06:52:39;17.87;;;7.63;;
4889;SDS011;2459;42.268;23.112;2023-04-03T06:55:06;9.00;;;5.47;;
4889;SDS011;2459;42.268;23.112;2023-04-03T06:57:34;26.57;;;7.47;;
4889;SDS011;2459;42.268;23.112;2023-04-03T07:00:11;14.43;;;7.97;;
4889;SDS011;2459;42.268;23.112;2023-04-03T07:02:38;11.70;;;6.50;;
4889;SDS011;2459;42.268;23.112;2023-04-03T07:05:05;21.20;;;7.77;;
4889;SDS011;2459;42.268;23.112;2023-04-03T07:07:34;14.10;;;7.83;;
4889;SDS011;2459;42.268;23.112;2023-04-03T07:10:00;17.47;;;8.80;;
4889;SDS011;2459;42.268;23.112;2023-04-03T07:12:27;11.80;;;6.57;;
4889;SDS011;2459;42.268;23.112;2023-04-03T07:14:53;8.07;;;4.63;;
4889;SDS011;2459;42.268;23.112;2023-04-03T07:17:21;8.93;;;4.80;;
4889;SDS011;2459;42.268;23.112;2023-04-03T07:19:48;11.93;;;6.27;;
4889;SDS011;2459;42.268;23.112;2023-04-03T07:22:15;10.63;;;4.53;;
4889;SDS011;2459;42.268;23.112;2023-04-03T07:24:41;12.90;;;5.17;;
4889;SDS011;2459;42.268;23.112;2023-04-03T07:27:10;10.83;;;4.53;;
4889;SDS011;2459;42.268;23.112;2023-04-03T07:29:37;15.53;;;4.40;;
4889;SDS011;2459;42.268;23.112;2023-04-03T07:32:04;7.90;;;3.80;;
4889;SDS011;2459;42.268;23.112;2023-04-03T07:34:33;6.80;;;3.53;;
4889;SDS011;2459;42.268;23.112;2023-04-03T07:37:03;4.50;;;2.90;;
4889;SDS011;2459;42.268;23.112;2023-04-03T07:39:34;5.40;;;2.93;;
4889;SDS011;2459;42.268;23.112;2023-04-03T07:42:00;3.60;;;2.47;;
4889;SDS011;2459;42.268;23.112;2023-04-03T07:44:27;6.70;;;2.53;;
4889;SDS011;2459;42.268;23.112;2023-04-03T07:46:55;6.20;;;2.70;;
4889;SDS011;2459;42.268;23.112;2023-04-03T07:49:22;4.77;;;2.83;;
4889;SDS011;2459;42.268;23.112;2023-04-03T07:51:50;6.60;;;1.97;;
4889;SDS011;2459;42.268;23.112;2023-04-03T07:54:18;6.93;;;2.03;;
4889;SDS011;2459;42.268;23.112;2023-04-03T07:56:44;2.07;;;1.87;;
4889;SDS011;2459;42.268;23.112;2023-04-03T07:59:11;5.27;;;2.40;;
4889;SDS011;2459;42.268;23.112;2023-04-03T08:01:53;10.40;;;4.77;;
4889;SDS011;2459;42.268;23.112;2023-04-03T08:04:21;2.43;;;2.23;;
4889;SDS011;2459;42.268;23.112;2023-04-03T08:06:48;4.50;;;2.50;;
4889;SDS011;2459;42.268;23.112;2023-04-03T08:09:16;22.10;;;3.50;;
4889;SDS011;2459;42.268;23.112;2023-04-03T08:11:43;3.80;;;2.20;;
4889;SDS011;2459;42.268;23.112;2023-04-03T08:14:10;4.73;;;2.30;;
4889;SDS011;2459;42.268;23.112;2023-04-03T08:16:41;3.00;;;2.17;;
4889;SDS011;2459;42.268;23.112;2023-04-03T08:19:11;3.40;;;2.17;;
4889;SDS011;2459;42.268;23.112;2023-04-03T08:21:40;8.90;;;3.40;;
4889;SDS011;2459;42.268;23.112;2023-04-03T08:24:07;8.07;;;2.30;;
4889;SDS011;2459;42.268;23.112;2023-04-03T08:26:35;6.60;;;4.63;;
4889;SDS011;2459;42.268;23.112;2023-04-03T08:29:02;6.50;;;3.37;;
4889;SDS011;2459;42.268;23.112;2023-04-03T08:31:29;3.20;;;1.93;;
4889;SDS011;2459;42.268;23.112;2023-04-03T08:33:56;12.63;;;2.93;;
4889;SDS011;2459;42.268;23.112;2023-04-03T08:36:27;17.20;;;3.30;;
4889;SDS011;2459;42.268;23.112;2023-04-03T08:38:54;5.27;;;2.80;;
4889;SDS011;2459;42.268;23.112;2023-04-03T08:41:24;8.93;;;2.50;;
4889;SDS011;2459;42.268;23.112;2023-04-03T08:43:56;11.70;;;2.33;;
4889;SDS011;2459;42.268;23.112;2023-04-03T08:46:26;3.27;;;2.00;;
4889;SDS011;2459;42.268;23.112;2023-04-03T08:48:58;2.67;;;1.40;;
4889;SDS011;2459;42.268;23.112;2023-04-03T08:51:26;8.13;;;2.90;;
4889;SDS011;2459;42.268;23.112;2023-04-03T08:53:54;5.10;;;3.23;;
4889;SDS011;2459;42.268;23.112;2023-04-03T08:56:23;11.00;;;5.30;;
4889;SDS011;2459;42.268;23.112;2023-04-03T08:58:51;3.60;;;2.27;;
4889;SDS011;2459;42.268;23.112;2023-04-03T09:01:20;7.43;;;3.87;;
4889;SDS011;2459;42.268;23.112;2023-04-03T09:03:47;6.97;;;3.60;;
4889;SDS011;2459;42.268;23.112;2023-04-03T09:06:14;5.70;;;2.20;;
4889;SDS011;2459;42.268;23.112;2023-04-03T09:08:45;5.67;;;1.90;;
4889;SDS011;2459;42.268;23.112;2023-04-03T09:11:14;4.53;;;1.80;;
4889;SDS011;2459;42.268;23.112;2023-04-03T09:13:44;7.30;;;2.10;;
4889;SDS011;2459;42.268;23.112;2023-04-03T09:16:19;9.20;;;3.33;;
4889;SDS011;2459;42.268;23.112;2023-04-03T09:18:48;5.43;;;2.37;;
4889;SDS011;2459;42.268;23.112;2023-04-03T09:21:20;4.87;;;2.27;;
4889;SDS011;2459;42.268;23.112;2023-04-03T09:23:49;2.87;;;2.40;;
4889;SDS011;2459;42.268;23.112;2023-04-03T09:26:17;14.83;;;3.43;;
4889;SDS011;2459;42.268;23.112;2023-04-03T09:28:44;4.17;;;2.43;;
4889;SDS011;2459;42.268;23.112;2023-04-03T09:31:14;3.73;;;2.97;;
4889;SDS011;2459;42.268;23.112;2023-04-03T09:33:42;4.23;;;2.60;;
4889;SDS011;2459;42.268;23.112;2023-04-03T09:36:10;1.83;;;1.60;;
4889;SDS011;2459;42.268;23.112;2023-04-03T09:38:37;5.00;;;2.53;;
4889;SDS011;2459;42.268;23.112;2023-04-03T09:41:06;2.50;;;2.00;;
4889;SDS011;2459;42.268;23.112;2023-04-03T09:43:33;1.90;;;1.80;;
4889;SDS011;2459;42.268;23.112;2023-04-03T09:48:56;3.00;;;1.50;;
4889;SDS011;2459;42.268;23.112;2023-04-03T09:51:26;3.40;;;2.07;;
4889;SDS011;2459;42.268;23.112;2023-04-03T09:53:54;2.93;;;1.60;;
4889;SDS011;2459;42.268;23.112;2023-04-03T09:56:34;2.00;;;1.80;;
4889;SDS011;2459;42.268;23.112;2023-04-03T09:59:08;4.10;;;2.33;;
4889;SDS011;2459;42.268;23.112;2023-04-03T10:01:41;5.67;;;2.20;;
4889;SDS011;2459;42.268;23.112;2023-04-03T10:04:09;3.00;;;2.00;;
4889;SDS011;2459;42.268;23.112;2023-04-03T10:06:37;1.87;;;1.77;;
4889;SDS011;2459;42.268;23.112;2023-04-03T10:09:14;2.50;;;1.57;;
4889;SDS011;2459;42.268;23.112;2023-04-03T10:11:58;3.20;;;1.50;;
4889;SDS011;2459;42.268;23.112;2023-04-03T10:14:26;2.80;;;1.90;;
4889;SDS011;2459;42.268;23.112;2023-04-03T10:16:57;12.30;;;1.73;;
4889;SDS011;2459;42.268;23.112;2023-04-03T10:19:35;4.73;;;2.30;;
4889;SDS011;2459;42.268;23.112;2023-04-03T10:22:04;4.37;;;1.87;;
4889;SDS011;2459;42.268;23.112;2023-04-03T10:24:36;4.20;;;2.13;;
4889;SDS011;2459;42.268;23.112;2023-04-03T10:27:05;2.90;;;2.07;;
4889;SDS011;2459;42.268;23.112;2023-04-03T10:29:37;7.57;;;2.63;;
4889;SDS011;2459;42.268;23.112;2023-04-03T10:32:14;2.70;;;1.80;;
4889;SDS011;2459;42.268;23.112;2023-04-03T10:34:46;1.53;;;1.33;;
4889;SDS011;2459;42.268;23.112;2023-04-03T10:37:14;2.10;;;1.90;;
4889;SDS011;2459;42.268;23.112;2023-04-03T10:39:46;3.67;;;1.97;;
4889;SDS011;2459;42.268;23.112;2023-04-03T10:42:23;1.50;;;1.40;;
4889;SDS011;2459;42.268;23.112;2023-04-03T10:44:52;3.33;;;1.63;;
4889;SDS011;2459;42.268;23.112;2023-04-03T10:47:21;0.90;;;0.77;;
4889;SDS011;2459;42.268;23.112;2023-04-03T10:49:51;1.73;;;1.37;;
4889;SDS011;2459;42.268;23.112;2023-04-03T10:52:20;4.23;;;1.63;;
4889;SDS011;2459;42.268;23.112;2023-04-03T10:54:51;1.10;;;1.00;;
4889;SDS011;2459;42.268;23.112;2023-04-03T10:57:21;2.03;;;1.53;;
4889;SDS011;2459;42.268;23.112;2023-04-03T10:59:49;1.50;;;1.40;;
4889;SDS011;2459;42.268;23.112;2023-04-03T11:02:19;3.33;;;1.80;;
4889;SDS011;2459;42.268;23.112;2023-04-03T11:04:51;1.67;;;1.40;;
4889;SDS011;2459;42.268;23.112;2023-04-03T11:07:23;5.03;;;1.60;;
4889;SDS011;2459;42.268;23.112;2023-04-03T11:09:53;3.53;;;1.20;;
4889;SDS011;2459;42.268;23.112;2023-04-03T11:12:24;1.33;;;1.23;;
4889;SDS011;2459;42.268;23.112;2023-04-03T11:14:53;1.87;;;1.67;;
4889;SDS011;2459;42.268;23.112;2023-04-03T11:17:24;2.43;;;1.50;;
4889;SDS011;2459;42.268;23.112;2023-04-03T11:19:57;1.50;;;1.30;;
4889;SDS011;2459;42.268;23.112;2023-04-03T11:22:27;7.00;;;2.53;;
4889;SDS011;2459;42.268;23.112;2023-04-03T11:24:56;3.80;;;1.90;;
4889;SDS011;2459;42.268;23.112;2023-04-03T11:27:26;3.43;;;1.47;;
4889;SDS011;2459;42.268;23.112;2023-04-03T11:29:55;2.43;;;2.00;;
4889;SDS011;2459;42.268;23.112;2023-04-03T11:35:14;5.63;;;2.10;;
4889;SDS011;2459;42.268;23.112;2023-04-03T11:35:42;2.47;;;1.70;;
4889;SDS011;2459;42.268;23.112;2023-04-03T11:38:13;4.93;;;1.80;;
4889;SDS011;2459;42.268;23.112;2023-04-03T11:40:41;2.30;;;2.00;;
4889;SDS011;2459;42.268;23.112;2023-04-03T11:43:20;2.90;;;2.17;;
4889;SDS011;2459;42.268;23.112;2023-04-03T11:45:50;4.87;;;2.33;;
4889;SDS011;2459;42.268;23.112;2023-04-03T11:53:59;8.40;;;2.53;;
4889;SDS011;2459;42.268;23.112;2023-04-03T11:56:49;2.37;;;2.00;;
4889;SDS011;2459;42.268;23.112;2023-04-03T11:59:25;1.77;;;1.37;;
4889;SDS011;2459;42.268;23.112;2023-04-03T12:01:54;1.73;;;1.63;;
4889;SDS011;2459;42.268;23.112;2023-04-03T12:04:23;2.00;;;1.80;;
4889;SDS011;2459;42.268;23.112;2023-04-03T12:06:53;3.57;;;2.03;;
4889;SDS011;2459;42.268;23.112;2023-04-03T12:09:29;2.33;;;1.90;;
4889;SDS011;2459;42.268;23.112;2023-04-03T12:11:59;3.90;;;1.80;;
4889;SDS011;2459;42.268;23.112;2023-04-03T12:14:27;6.93;;;2.37;;
4889;SDS011;2459;42.268;23.112;2023-04-03T12:16:54;2.87;;;1.83;;
4889;SDS011;2459;42.268;23.112;2023-04-03T12:19:35;3.03;;;1.73;;
4889;SDS011;2459;42.268;23.112;2023-04-03T12:22:12;2.77;;;2.00;;
4889;SDS011;2459;42.268;23.112;2023-04-03T12:24:40;5.00;;;1.70;;
4889;SDS011;2459;42.268;23.112;2023-04-03T12:27:20;2.20;;;1.47;;
4889;SDS011;2459;42.268;23.112;2023-04-03T12:29:50;3.60;;;1.67;;
4889;SDS011;2459;42.268;23.112;2023-04-03T12:32:22;6.10;;;1.77;;
4889;SDS011;2459;42.268;23.112;2023-04-03T12:35:04;9.47;;;1.80;;
4889;SDS011;2459;42.268;23.112;2023-04-03T12:37:39;1.43;;;1.27;;
4889;SDS011;2459;42.268;23.112;2023-04-03T12:40:08;1.77;;;1.67;;
4889;SDS011;2459;42.268;23.112;2023-04-03T12:45:19;2.03;;;1.90;;
4889;SDS011;2459;42.268;23.112;2023-04-03T12:47:47;1.57;;;1.47;;
4889;SDS011;2459;42.268;23.112;2023-04-03T12:50:18;5.90;;;3.40;;
4889;SDS011;2459;42.268;23.112;2023-04-03T12:52:47;6.43;;;1.67;;
4889;SDS011;2459;42.268;23.112;2023-04-03T12:55:16;2.50;;;1.30;;
4889;SDS011;2459;42.268;23.112;2023-04-03T12:57:43;3.83;;;2.00;;
4889;SDS011;2459;42.268;23.112;2023-04-03T13:03:06;2.63;;;2.40;;
4889;SDS011;2459;42.268;23.112;2023-04-03T13:05:33;2.80;;;1.93;;
4889;SDS011;2459;42.268;23.112;2023-04-03T13:08:02;4.73;;;1.70;;
4889;SDS011;2459;42.268;23.112;2023-04-03T13:10:30;1.03;;;1.03;;
4889;SDS011;2459;42.268;23.112;2023-04-03T13:12:58;0.90;;;0.90;;
4889;SDS011;2459;42.268;23.112;2023-04-03T13:15:26;8.83;;;1.47;;
4889;SDS011;2459;42.268;23.112;2023-04-03T13:17:53;2.00;;;1.30;;
4889;SDS011;2459;42.268;23.112;2023-04-03T13:20:23;5.17;;;1.70;;
4889;SDS011;2459;42.268;23.112;2023-04-03T13:22:51;0.80;;;0.80;;
4889;SDS011;2459;42.268;23.112;2023-04-03T13:25:19;5.30;;;2.07;;
4889;SDS011;2459;42.268;23.112;2023-04-03T13:27:46;1.57;;;1.33;;
4889;SDS011;2459;42.268;23.112;2023-04-03T13:30:20;2.20;;;1.80;;
4889;SDS011;2459;42.268;23.112;2023-04-03T13:32:48;3.97;;;1.23;;
4889;SDS011;2459;42.268;23.112;2023-04-03T13:35:30;2.23;;;1.10;;
4889;SDS011;2459;42.268;23.112;2023-04-03T13:37:58;3.03;;;1.53;;
4889;SDS011;2459;42.268;23.112;2023-04-03T13:40:25;3.13;;;1.20;;
4889;SDS011;2459;42.268;23.112;2023-04-03T13:42:58;1.83;;;1.27;;
4889;SDS011;2459;42.268;23.112;2023-04-03T13:45:26;1.20;;;1.10;;
4889;SDS011;2459;42.268;23.112;2023-04-03T13:48:05;0.80;;;0.80;;
4889;SDS011;2459;42.268;23.112;2023-04-03T13:50:41;4.83;;;1.27;;
4889;SDS011;2459;42.268;23.112;2023-04-03T13:53:16;11.10;;;1.70;;
4889;SDS011;2459;42.268;23.112;2023-04-03T13:55:51;2.77;;;1.90;;
4889;SDS011;2459;42.268;23.112;2023-04-03T13:58:21;4.50;;;0.87;;
4889;SDS011;2459;42.268;23.112;2023-04-03T14:00:50;2.70;;;1.20;;
4889;SDS011;2459;42.268;23.112;2023-04-03T14:03:19;6.80;;;2.83;;
4889;SDS011;2459;42.268;23.112;2023-04-03T14:05:51;7.10;;;1.90;;
4889;SDS011;2459;42.268;23.112;2023-04-03T14:08:19;1.37;;;1.20;;
4889;SDS011;2459;42.268;23.112;2023-04-03T14:10:47;3.17;;;1.73;;
4889;SDS011;2459;42.268;23.112;2023-04-03T14:13:15;1.67;;;1.20;;
4889;SDS011;2459;42.268;23.112;2023-04-03T14:15:42;1.00;;;0.90;;
4889;SDS011;2459;42.268;23.112;2023-04-03T14:18:10;7.37;;;1.17;;
4889;SDS011;2459;42.268;23.112;2023-04-03T14:20:37;1.30;;;1.20;;
4889;SDS011;2459;42.268;23.112;2023-04-03T14:23:06;2.10;;;1.30;;
4889;SDS011;2459;42.268;23.112;2023-04-03T14:25:32;2.37;;;2.17;;
4889;SDS011;2459;42.268;23.112;2023-04-03T14:27:59;1.33;;;1.23;;
4889;SDS011;2459;42.268;23.112;2023-04-03T14:30:28;2.80;;;1.20;;
4889;SDS011;2459;42.268;23.112;2023-04-03T14:32:55;6.20;;;1.80;;
4889;SDS011;2459;42.268;23.112;2023-04-03T14:35:22;8.27;;;1.53;;
4889;SDS011;2459;42.268;23.112;2023-04-03T14:37:50;1.03;;;1.03;;
4889;SDS011;2459;42.268;23.112;2023-04-03T14:40:19;1.13;;;1.00;;
4889;SDS011;2459;42.268;23.112;2023-04-03T14:42:46;1.97;;;1.30;;
4889;SDS011;2459;42.268;23.112;2023-04-03T14:45:14;1.23;;;1.13;;
4889;SDS011;2459;42.268;23.112;2023-04-03T14:47:42;9.10;;;1.30;;
4889;SDS011;2459;42.268;23.112;2023-04-03T14:50:12;0.97;;;0.90;;
4889;SDS011;2459;42.268;23.112;2023-04-03T14:52:41;1.77;;;0.87;;
4889;SDS011;2459;42.268;23.112;2023-04-03T14:55:08;1.13;;;0.97;;
4889;SDS011;2459;42.268;23.112;2023-04-03T14:57:37;1.17;;;1.10;;
4889;SDS011;2459;42.268;23.112;2023-04-03T15:00:06;1.10;;;1.00;;
4889;SDS011;2459;42.268;23.112;2023-04-03T15:02:34;1.40;;;1.30;;
4889;SDS011;2459;42.268;23.112;2023-04-03T15:05:01;1.37;;;1.27;;
4889;SDS011;2459;42.268;23.112;2023-04-03T15:07:29;3.43;;;1.20;;
4889;SDS011;2459;42.268;23.112;2023-04-03T15:09:56;0.90;;;0.90;;
4889;SDS011;2459;42.268;23.112;2023-04-03T15:12:23;2.23;;;1.20;;
4889;SDS011;2459;42.268;23.112;2023-04-03T15:14:51;1.53;;;1.10;;
4889;SDS011;2459;42.268;23.112;2023-04-03T15:17:19;1.87;;;1.70;;
4889;SDS011;2459;42.268;23.112;2023-04-03T15:19:46;15.23;;;1.83;;
4889;SDS011;2459;42.268;23.112;2023-04-03T15:22:14;1.47;;;1.37;;
4889;SDS011;2459;42.268;23.112;2023-04-03T15:24:41;1.97;;;1.77;;